sensor_id;sensor_type;location;lat;lon;timestamp;pressure;altitude;pressure_sealevel;temperature;humidity
15314;BME280;7757;52.626;4.746;2022-09-12T00:01:44;101566.16;;;23.37;59.12
15314;BME280;7757;52.626;4.746;2022-09-12T00:04:11;101561.28;;;23.39;59.66
15314;BME280;7757;52.626;4.746;2022-09-12T00:06:38;101562.03;;;23.34;59.17
15314;BME280;7757;52.626;4.746;2022-09-12T00:09:07;101559.88;;;23.37;59.25
15314;BME280;7757;52.626;4.746;2022-09-12T00:11:35;101557.13;;;23.37;59.25
15314;BME280;7757;52.626;4.746;2022-09-12T00:14:03;101551.84;;;23.30;59.30
15314;BME280;7757;52.626;4.746;2022-09-12T00:16:32;101558.31;;;23.41;59.55
15314;BME280;7757;52.626;4.746;2022-09-12T00:18:59;101547.13;;;23.42;58.79
15314;BME280;7757;52.626;4.746;2022-09-12T00:21:26;101547.97;;;23.43;58.86
15314;BME280;7757;52.626;4.746;2022-09-12T00:23:53;101546.31;;;23.42;59.05
15314;BME280;7757;52.626;4.746;2022-09-12T00:26:20;101545.81;;;23.45;59.35
15314;BME280;7757;52.626;4.746;2022-09-12T00:28:48;101533.81;;;23.46;59.11
15314;BME280;7757;52.626;4.746;2022-09-12T00:31:17;101539.00;;;23.47;58.53
15314;BME280;7757;52.626;4.746;2022-09-12T00:33:44;101535.06;;;23.38;58.74
15314;BME280;7757;52.626;4.746;2022-09-12T00:36:14;101535.88;;;23.39;59.21
15314;BME280;7757;52.626;4.746;2022-09-12T00:38:40;101525.81;;;23.39;58.88
15314;BME280;7757;52.626;4.746;2022-09-12T00:43:39;101524.53;;;23.47;58.57
15314;BME280;7757;52.626;4.746;2022-09-12T00:46:15;101523.31;;;23.38;58.99
15314;BME280;7757;52.626;4.746;2022-09-12T00:48:45;101518.91;;;23.37;58.43
15314;BME280;7757;52.626;4.746;2022-09-12T00:51:13;101518.44;;;23.40;58.82
15314;BME280;7757;52.626;4.746;2022-09-12T00:53:41;101520.44;;;23.44;58.28
15314;BME280;7757;52.626;4.746;2022-09-12T00:56:09;101518.19;;;23.41;58.65
15314;BME280;7757;52.626;4.746;2022-09-12T00:58:40;101516.78;;;23.39;58.68
15314;BME280;7757;52.626;4.746;2022-09-12T01:01:09;101517.38;;;23.41;58.22
15314;BME280;7757;52.626;4.746;2022-09-12T01:03:36;101518.44;;;23.40;58.84
15314;BME280;7757;52.626;4.746;2022-09-12T01:06:08;101514.63;;;23.41;58.32
15314;BME280;7757;52.626;4.746;2022-09-12T01:08:37;101508.81;;;23.37;58.38
15314;BME280;7757;52.626;4.746;2022-09-12T01:11:05;101511.41;;;23.44;58.40
15314;BME280;7757;52.626;4.746;2022-09-12T01:13:34;101511.91;;;23.41;58.54
15314;BME280;7757;52.626;4.746;2022-09-12T01:16:02;101514.22;;;23.32;59.00
15314;BME280;7757;52.626;4.746;2022-09-12T01:18:36;101506.16;;;23.20;59.35
15314;BME280;7757;52.626;4.746;2022-09-12T01:21:19;101508.13;;;23.25;59.07
15314;BME280;7757;52.626;4.746;2022-09-12T01:24:31;101507.75;;;23.16;59.14
15314;BME280;7757;52.626;4.746;2022-09-12T01:27:16;101506.13;;;22.99;59.57
15314;BME280;7757;52.626;4.746;2022-09-12T01:29:57;101504.00;;;23.22;58.57
15314;BME280;7757;52.626;4.746;2022-09-12T01:32:31;101498.88;;;23.26;58.22
15314;BME280;7757;52.626;4.746;2022-09-12T01:35:05;101503.50;;;23.25;58.98
15314;BME280;7757;52.626;4.746;2022-09-12T01:37:47;101500.13;;;23.18;58.70
15314;BME280;7757;52.626;4.746;2022-09-12T01:40:22;101497.94;;;22.99;59.22
15314;BME280;7757;52.626;4.746;2022-09-12T01:42:53;101494.28;;;23.10;59.24
15314;BME280;7757;52.626;4.746;2022-09-12T01:45:29;101494.28;;;23.10;59.06
15314;BME280;7757;52.626;4.746;2022-09-12T01:48:02;101491.19;;;23.23;58.78
15314;BME280;7757;52.626;4.746;2022-09-12T01:50:34;101485.41;;;23.19;58.74
15314;BME280;7757;52.626;4.746;2022-09-12T01:53:06;101484.34;;;23.20;58.57
15314;BME280;7757;52.626;4.746;2022-09-12T01:55:39;101481.28;;;23.17;59.00
15314;BME280;7757;52.626;4.746;2022-09-12T01:58:10;101482.66;;;23.19;58.38
15314;BME280;7757;52.626;4.746;2022-09-12T02:00:43;101475.06;;;22.83;59.80
15314;BME280;7757;52.626;4.746;2022-09-12T02:03:17;101472.81;;;22.97;59.50
15314;BME280;7757;52.626;4.746;2022-09-12T02:05:53;101462.72;;;22.97;59.08
15314;BME280;7757;52.626;4.746;2022-09-12T02:08:26;101468.50;;;23.01;58.98
15314;BME280;7757;52.626;4.746;2022-09-12T02:10:58;101466.22;;;22.93;58.78
15314;BME280;7757;52.626;4.746;2022-09-12T02:13:30;101464.44;;;22.82;59.39
15314;BME280;7757;52.626;4.746;2022-09-12T02:16:02;101457.06;;;22.82;59.59
15314;BME280;7757;52.626;4.746;2022-09-12T02:18:33;101461.31;;;22.73;59.83
15314;BME280;7757;52.626;4.746;2022-09-12T02:21:00;101462.25;;;22.84;59.43
15314;BME280;7757;52.626;4.746;2022-09-12T02:23:31;101457.53;;;22.96;58.93
15314;BME280;7757;52.626;4.746;2022-09-12T02:26:05;101456.63;;;22.90;58.98
15314;BME280;7757;52.626;4.746;2022-09-12T02:28:35;101457.53;;;22.96;59.38
15314;BME280;7757;52.626;4.746;2022-09-12T02:31:11;101451.69;;;22.87;58.78
15314;BME280;7757;52.626;4.746;2022-09-12T02:33:47;101452.63;;;22.76;58.99
15314;BME280;7757;52.626;4.746;2022-09-12T02:36:17;101456.91;;;22.72;59.78
15314;BME280;7757;52.626;4.746;2022-09-12T02:38:49;101448.38;;;22.85;59.41
15314;BME280;7757;52.626;4.746;2022-09-12T02:43:45;101444.13;;;22.72;59.72
15314;BME280;7757;52.626;4.746;2022-09-12T02:46:14;101445.34;;;22.82;59.54
15314;BME280;7757;52.626;4.746;2022-09-12T02:48:44;101436.66;;;22.85;59.46
15314;BME280;7757;52.626;4.746;2022-09-12T02:51:11;101435.16;;;22.77;59.47
15314;BME280;7757;52.626;4.746;2022-09-12T02:53:39;101430.59;;;22.83;58.83
15314;BME280;7757;52.626;4.746;2022-09-12T02:56:11;101436.56;;;22.79;59.24
15314;BME280;7757;52.626;4.746;2022-09-12T02:58:42;101439.00;;;22.76;58.96
15314;BME280;7757;52.626;4.746;2022-09-12T03:01:13;101433.00;;;22.62;59.84
15314;BME280;7757;52.626;4.746;2022-09-12T03:03:59;101429.16;;;22.58;60.04
15314;BME280;7757;52.626;4.746;2022-09-12T03:06:34;101431.47;;;22.50;60.10
15314;BME280;7757;52.626;4.746;2022-09-12T03:09:10;101422.72;;;22.48;60.28
15314;BME280;7757;52.626;4.746;2022-09-12T03:12:02;101420.16;;;22.58;59.05
15314;BME280;7757;52.626;4.746;2022-09-12T03:14:42;101428.16;;;22.48;60.07
15314;BME280;7757;52.626;4.746;2022-09-12T03:17:24;101417.84;;;22.33;59.84
15314;BME280;7757;52.626;4.746;2022-09-12T03:20:00;101410.41;;;22.45;59.76
15314;BME280;7757;52.626;4.746;2022-09-12T03:22:33;101409.34;;;22.46;59.95
15314;BME280;7757;52.626;4.746;2022-09-12T03:25:08;101415.34;;;22.65;59.57
15314;BME280;7757;52.626;4.746;2022-09-12T03:27:40;101417.19;;;22.26;59.76
15314;BME280;7757;52.626;4.746;2022-09-12T03:30:10;101418.25;;;22.58;59.28
15314;BME280;7757;52.626;4.746;2022-09-12T03:32:42;101413.38;;;22.60;59.40
15314;BME280;7757;52.626;4.746;2022-09-12T03:35:11;101419.09;;;22.42;59.02
15314;BME280;7757;52.626;4.746;2022-09-12T03:37:38;101411.09;;;22.36;60.23
15314;BME280;7757;52.626;4.746;2022-09-12T03:40:06;101423.72;;;22.58;59.48
15314;BME280;7757;52.626;4.746;2022-09-12T03:42:33;101416.53;;;22.52;59.21
15314;BME280;7757;52.626;4.746;2022-09-12T03:44:59;101414.31;;;22.49;59.43
15314;BME280;7757;52.626;4.746;2022-09-12T03:47:26;101408.25;;;22.64;59.42
15314;BME280;7757;52.626;4.746;2022-09-12T03:49:52;101402.44;;;22.77;58.63
15314;BME280;7757;52.626;4.746;2022-09-12T03:52:20;101407.31;;;22.75;59.30
15314;BME280;7757;52.626;4.746;2022-09-12T03:54:47;101408.56;;;22.67;58.84
15314;BME280;7757;52.626;4.746;2022-09-12T03:57:14;101410.56;;;22.55;59.09
15314;BME280;7757;52.626;4.746;2022-09-12T03:59:40;101416.50;;;22.69;58.77
15314;BME280;7757;52.626;4.746;2022-09-12T04:02:07;101410.56;;;22.72;58.52
15314;BME280;7757;52.626;4.746;2022-09-12T04:04:36;101408.38;;;22.74;59.15
15314;BME280;7757;52.626;4.746;2022-09-12T04:07:03;101420.41;;;22.73;59.35
15314;BME280;7757;52.626;4.746;2022-09-12T04:09:31;101420.63;;;22.71;58.72
15314;BME280;7757;52.626;4.746;2022-09-12T04:11:57;101421.47;;;22.72;58.67
15314;BME280;7757;52.626;4.746;2022-09-12T04:14:24;101420.63;;;22.71;58.47
15314;BME280;7757;52.626;4.746;2022-09-12T04:16:50;101422.88;;;22.58;59.71
15314;BME280;7757;52.626;4.746;2022-09-12T04:19:16;101413.78;;;22.69;59.33
15314;BME280;7757;52.626;4.746;2022-09-12T04:21:43;101417.41;;;22.74;58.76
15314;BME280;7757;52.626;4.746;2022-09-12T04:24:09;101412.81;;;22.58;58.95
15314;BME280;7757;52.626;4.746;2022-09-12T04:26:37;101406.59;;;22.63;59.24
15314;BME280;7757;52.626;4.746;2022-09-12T04:29:04;101399.66;;;22.55;59.77
15314;BME280;7757;52.626;4.746;2022-09-12T04:31:30;101395.34;;;22.59;59.15
15314;BME280;7757;52.626;4.746;2022-09-12T04:33:58;101392.22;;;22.67;58.75
15314;BME280;7757;52.626;4.746;2022-09-12T04:36:25;101398.59;;;22.73;58.69
15314;BME280;7757;52.626;4.746;2022-09-12T04:38:53;101402.38;;;22.72;58.44
15314;BME280;7757;52.626;4.746;2022-09-12T04:41:21;101400.56;;;22.44;59.29
15314;BME280;7757;52.626;4.746;2022-09-12T04:43:53;101403.72;;;22.69;58.50
15314;BME280;7757;52.626;4.746;2022-09-12T04:46:22;101405.34;;;22.70;58.50
15314;BME280;7757;52.626;4.746;2022-09-12T04:48:49;101402.78;;;22.64;58.87
15314;BME280;7757;52.626;4.746;2022-09-12T04:51:18;101407.84;;;22.55;59.74
15314;BME280;7757;52.626;4.746;2022-09-12T04:53:47;101394.69;;;22.69;58.58
15314;BME280;7757;52.626;4.746;2022-09-12T04:56:14;101394.94;;;22.67;58.73
15314;BME280;7757;52.626;4.746;2022-09-12T04:58:41;101399.09;;;22.70;58.70
15314;BME280;7757;52.626;4.746;2022-09-12T05:01:11;101391.78;;;22.59;59.41
15314;BME280;7757;52.626;4.746;2022-09-12T05:03:38;101396.34;;;22.70;59.08
15314;BME280;7757;52.626;4.746;2022-09-12T05:06:08;101396.16;;;22.76;58.10
15314;BME280;7757;52.626;4.746;2022-09-12T05:08:36;101385.13;;;22.66;58.29
15314;BME280;7757;52.626;4.746;2022-09-12T05:11:03;101386.09;;;22.60;58.98
15314;BME280;7757;52.626;4.746;2022-09-12T05:13:30;101388.00;;;22.60;59.05
15314;BME280;7757;52.626;4.746;2022-09-12T05:15:58;101376.94;;;22.66;58.91
15314;BME280;7757;52.626;4.746;2022-09-12T05:18:27;101383.03;;;22.57;58.86
15314;BME280;7757;52.626;4.746;2022-09-12T05:20:54;101378.88;;;22.49;59.12
15314;BME280;7757;52.626;4.746;2022-09-12T05:23:20;101368.63;;;22.40;59.33
15314;BME280;7757;52.626;4.746;2022-09-12T05:25:49;101376.75;;;22.18;59.86
15314;BME280;7757;52.626;4.746;2022-09-12T05:28:17;101380.13;;;22.25;59.70
15314;BME280;7757;52.626;4.746;2022-09-12T05:30:44;101376.66;;;22.30;59.89
15314;BME280;7757;52.626;4.746;2022-09-12T05:33:11;101373.81;;;22.41;59.33
15314;BME280;7757;52.626;4.746;2022-09-12T05:35:39;101383.25;;;22.34;59.93
15314;BME280;7757;52.626;4.746;2022-09-12T05:38:06;101389.31;;;22.19;59.58
15314;BME280;7757;52.626;4.746;2022-09-12T05:40:33;101383.72;;;22.47;59.14
15314;BME280;7757;52.626;4.746;2022-09-12T05:43:00;101379.97;;;22.32;59.29
15314;BME280;7757;52.626;4.746;2022-09-12T05:45:26;101380.66;;;22.05;60.38
15314;BME280;7757;52.626;4.746;2022-09-12T05:47:53;101386.97;;;22.28;60.08
15314;BME280;7757;52.626;4.746;2022-09-12T05:50:19;101373.09;;;22.29;59.03
15314;BME280;7757;52.626;4.746;2022-09-12T05:52:47;101373.34;;;22.28;59.81
15314;BME280;7757;52.626;4.746;2022-09-12T05:55:14;101368.56;;;22.18;59.46
15314;BME280;7757;52.626;4.746;2022-09-12T05:57:42;101367.44;;;22.14;59.43
15314;BME280;7757;52.626;4.746;2022-09-12T06:00:12;101367.66;;;22.12;59.56
15314;BME280;7757;52.626;4.746;2022-09-12T06:02:39;101366.78;;;22.07;59.01
15314;BME280;7757;52.626;4.746;2022-09-12T06:05:06;101365.41;;;22.26;59.67
15314;BME280;7757;52.626;4.746;2022-09-12T06:07:32;101365.00;;;22.34;59.67
15314;BME280;7757;52.626;4.746;2022-09-12T06:10:01;101372.56;;;22.65;58.50
15314;BME280;7757;52.626;4.746;2022-09-12T06:12:28;101372.91;;;22.52;59.16
15314;BME280;7757;52.626;4.746;2022-09-12T06:14:55;101366.63;;;22.52;58.56
15314;BME280;7757;52.626;4.746;2022-09-12T06:17:22;101372.47;;;22.60;58.74
15314;BME280;7757;52.626;4.746;2022-09-12T06:19:48;101378.75;;;22.44;59.33
15314;BME280;7757;52.626;4.746;2022-09-12T06:22:15;101383.53;;;22.70;58.46
15314;BME280;7757;52.626;4.746;2022-09-12T06:24:42;101380.00;;;22.53;58.80
15314;BME280;7757;52.626;4.746;2022-09-12T06:27:10;101375.03;;;22.67;58.09
15314;BME280;7757;52.626;4.746;2022-09-12T06:29:36;101379.66;;;22.88;57.72
15314;BME280;7757;52.626;4.746;2022-09-12T06:32:03;101378.34;;;22.91;57.60
15314;BME280;7757;52.626;4.746;2022-09-12T06:34:30;101377.19;;;22.65;59.06
15314;BME280;7757;52.626;4.746;2022-09-12T06:36:58;101377.94;;;23.25;56.47
15314;BME280;7757;52.626;4.746;2022-09-12T06:39:24;101379.69;;;23.37;56.32
15314;BME280;7757;52.626;4.746;2022-09-12T06:41:51;101371.72;;;23.57;55.76
15314;BME280;7757;52.626;4.746;2022-09-12T06:44:20;101379.00;;;23.24;56.70
15314;BME280;7757;52.626;4.746;2022-09-12T06:46:48;101371.56;;;23.42;56.31
15314;BME280;7757;52.626;4.746;2022-09-12T06:49:14;101370.16;;;23.66;55.62
15314;BME280;7757;52.626;4.746;2022-09-12T06:51:41;101372.38;;;23.69;55.18
15314;BME280;7757;52.626;4.746;2022-09-12T06:54:11;101373.72;;;23.66;55.31
15314;BME280;7757;52.626;4.746;2022-09-12T06:56:38;101370.16;;;23.98;54.51
15314;BME280;7757;52.626;4.746;2022-09-12T06:59:05;101363.13;;;24.07;54.35
15314;BME280;7757;52.626;4.746;2022-09-12T07:01:33;101363.00;;;24.23;53.93
15314;BME280;7757;52.626;4.746;2022-09-12T07:04:01;101359.75;;;24.78;52.21
15314;BME280;7757;52.626;4.746;2022-09-12T07:06:29;101371.22;;;24.70;52.85
15314;BME280;7757;52.626;4.746;2022-09-12T07:08:57;101363.63;;;24.82;52.12
15314;BME280;7757;52.626;4.746;2022-09-12T07:11:26;101365.66;;;24.13;54.13
15314;BME280;7757;52.626;4.746;2022-09-12T07:13:54;101370.16;;;24.76;52.49
15314;BME280;7757;52.626;4.746;2022-09-12T07:16:21;101366.03;;;24.79;52.23
15314;BME280;7757;52.626;4.746;2022-09-12T07:18:54;101364.19;;;24.89;52.39
15314;BME280;7757;52.626;4.746;2022-09-12T07:21:20;101355.69;;;24.34;53.62
15314;BME280;7757;52.626;4.746;2022-09-12T07:23:48;101358.22;;;24.46;53.66
15314;BME280;7757;52.626;4.746;2022-09-12T07:26:16;101358.09;;;24.25;53.53
15314;BME280;7757;52.626;4.746;2022-09-12T07:28:43;101358.09;;;24.25;54.06
15314;BME280;7757;52.626;4.746;2022-09-12T07:31:12;101359.34;;;24.55;53.62
15314;BME280;7757;52.626;4.746;2022-09-12T07:33:40;101359.97;;;24.67;53.38
15314;BME280;7757;52.626;4.746;2022-09-12T07:36:10;101357.69;;;25.01;52.58
15314;BME280;7757;52.626;4.746;2022-09-12T07:38:37;101360.38;;;24.90;52.71
15314;BME280;7757;52.626;4.746;2022-09-12T07:41:09;101358.47;;;25.01;52.58
15314;BME280;7757;52.626;4.746;2022-09-12T07:43:36;101362.72;;;25.39;51.30
15314;BME280;7757;52.626;4.746;2022-09-12T07:46:02;101361.84;;;25.33;51.50
15314;BME280;7757;52.626;4.746;2022-09-12T07:48:29;101364.88;;;25.27;51.82
15314;BME280;7757;52.626;4.746;2022-09-12T07:50:59;101362.97;;;25.37;51.86
15314;BME280;7757;52.626;4.746;2022-09-12T07:53:30;101362.19;;;25.57;51.14
15314;BME280;7757;52.626;4.746;2022-09-12T07:55:57;101362.19;;;25.57;51.07
15314;BME280;7757;52.626;4.746;2022-09-12T07:58:24;101363.00;;;25.47;51.50
15314;BME280;7757;52.626;4.746;2022-09-12T08:00:51;101364.97;;;25.62;50.74
15314;BME280;7757;52.626;4.746;2022-09-12T08:03:17;101369.88;;;25.75;50.64
15314;BME280;7757;52.626;4.746;2022-09-12T08:05:44;101363.59;;;25.65;50.82
15314;BME280;7757;52.626;4.746;2022-09-12T08:08:11;101361.41;;;25.62;51.13
15314;BME280;7757;52.626;4.746;2022-09-12T08:10:39;101355.91;;;25.87;50.07
15314;BME280;7757;52.626;4.746;2022-09-12T08:13:05;101376.22;;;25.86;50.49
15314;BME280;7757;52.626;4.746;2022-09-12T08:15:33;101387.44;;;25.84;50.74
15314;BME280;7757;52.626;4.746;2022-09-12T08:18:00;101378.13;;;25.80;50.89
15314;BME280;7757;52.626;4.746;2022-09-12T08:20:27;101380.31;;;25.73;50.93
15314;BME280;7757;52.626;4.746;2022-09-12T08:22:54;101380.31;;;25.93;50.48
15314;BME280;7757;52.626;4.746;2022-09-12T08:25:20;101384.72;;;25.74;50.93
15314;BME280;7757;52.626;4.746;2022-09-12T08:27:49;101390.19;;;25.74;50.93
15314;BME280;7757;52.626;4.746;2022-09-12T08:30:15;101386.78;;;25.37;51.66
15314;BME280;7757;52.626;4.746;2022-09-12T08:32:41;101390.16;;;25.59;50.97
15314;BME280;7757;52.626;4.746;2022-09-12T08:35:08;101391.25;;;25.78;50.50
15314;BME280;7757;52.626;4.746;2022-09-12T08:37:35;101398.38;;;25.59;51.00
15314;BME280;7757;52.626;4.746;2022-09-12T08:40:02;101386.31;;;25.50;51.17
15314;BME280;7757;52.626;4.746;2022-09-12T08:42:42;101384.97;;;25.63;50.87
15314;BME280;7757;52.626;4.746;2022-09-12T08:45:16;101394.28;;;25.77;50.71
15314;BME280;7757;52.626;4.746;2022-09-12T08:47:46;101391.81;;;25.85;50.70
15314;BME280;7757;52.626;4.746;2022-09-12T08:50:16;101381.13;;;25.74;51.04
15314;BME280;7757;52.626;4.746;2022-09-12T08:52:50;101379.75;;;25.86;50.60
15314;BME280;7757;52.626;4.746;2022-09-12T08:55:30;101369.88;;;25.75;50.88
15314;BME280;7757;52.626;4.746;2022-09-12T08:57:57;101372.09;;;25.73;51.00
15314;BME280;7757;52.626;4.746;2022-09-12T09:00:34;101366.59;;;26.08;50.54
15314;BME280;7757;52.626;4.746;2022-09-12T09:03:29;101371.84;;;26.15;50.31
15314;BME280;7757;52.626;4.746;2022-09-12T09:06:06;101368.25;;;26.10;50.64
15314;BME280;7757;52.626;4.746;2022-09-12T09:08:43;101366.31;;;26.00;50.66
15314;BME280;7757;52.626;4.746;2022-09-12T09:11:22;101362.75;;;26.10;50.79
15314;BME280;7757;52.626;4.746;2022-09-12T09:14:02;101363.84;;;26.29;50.57
15314;BME280;7757;52.626;4.746;2022-09-12T09:16:51;101350.13;;;26.39;49.90
15314;BME280;7757;52.626;4.746;2022-09-12T09:19:21;101350.44;;;26.27;50.29
15314;BME280;7757;52.626;4.746;2022-09-12T09:21:53;101346.81;;;26.37;49.90
15314;BME280;7757;52.626;4.746;2022-09-12T09:24:26;101354.22;;;26.41;49.88
15314;BME280;7757;52.626;4.746;2022-09-12T09:26:57;101354.75;;;26.43;50.15
15314;BME280;7757;52.626;4.746;2022-09-12T09:29:28;101347.03;;;26.55;50.02
15314;BME280;7757;52.626;4.746;2022-09-12T09:31:59;101340.50;;;26.41;50.19
15314;BME280;7757;52.626;4.746;2022-09-12T09:34:28;101339.19;;;26.24;50.82
15314;BME280;7757;52.626;4.746;2022-09-12T09:37:01;101332.28;;;26.41;50.53
15314;BME280;7757;52.626;4.746;2022-09-12T09:39:42;101333.41;;;26.05;51.15
15314;BME280;7757;52.626;4.746;2022-09-12T09:42:22;101339.16;;;26.29;51.14
15314;BME280;7757;52.626;4.746;2022-09-12T09:44:52;101333.13;;;26.27;52.13
15314;BME280;7757;52.626;4.746;2022-09-12T09:47:20;101333.69;;;26.08;50.66
15314;BME280;7757;52.626;4.746;2022-09-12T09:49:47;101337.78;;;26.26;51.30
15314;BME280;7757;52.626;4.746;2022-09-12T09:52:16;101325.13;;;26.45;50.53
15314;BME280;7757;52.626;4.746;2022-09-12T09:54:47;101314.25;;;25.85;51.95
15314;BME280;7757;52.626;4.746;2022-09-12T09:57:39;101305.19;;;26.20;50.74
15314;BME280;7757;52.626;4.746;2022-09-12T10:00:20;101314.53;;;25.83;51.60
15314;BME280;7757;52.626;4.746;2022-09-12T10:03:03;101317.22;;;26.14;51.12
15314;BME280;7757;52.626;4.746;2022-09-12T10:05:32;101312.06;;;25.87;51.47
15314;BME280;7757;52.626;4.746;2022-09-12T10:08:00;101304.03;;;26.41;50.19
15314;BME280;7757;52.626;4.746;2022-09-12T10:10:27;101295.59;;;26.02;51.18
15314;BME280;7757;52.626;4.746;2022-09-12T10:13:07;101300.53;;;25.90;51.03
15314;BME280;7757;52.626;4.746;2022-09-12T10:15:34;101290.63;;;26.04;50.56
15314;BME280;7757;52.626;4.746;2022-09-12T10:18:03;101286.06;;;25.74;52.18
15314;BME280;7757;52.626;4.746;2022-09-12T10:20:34;101292.25;;;26.25;50.92
15314;BME280;7757;52.626;4.746;2022-09-12T10:25:45;101283.22;;;26.25;50.28
15314;BME280;7757;52.626;4.746;2022-09-12T10:28:20;101292.50;;;26.44;50.09
15314;BME280;7757;52.626;4.746;2022-09-12T10:30:50;101303.25;;;26.05;51.00
15314;BME280;7757;52.626;4.746;2022-09-12T10:33:19;101291.22;;;26.01;51.14
15314;BME280;7757;52.626;4.746;2022-09-12T10:35:47;101295.31;;;26.24;50.76
15314;BME280;7757;52.626;4.746;2022-09-12T10:38:20;101282.53;;;26.58;50.17
15314;BME280;7757;52.626;4.746;2022-09-12T10:40:55;101296.69;;;26.21;50.69
15314;BME280;7757;52.626;4.746;2022-09-12T10:43:26;101289.81;;;26.14;50.46
15314;BME280;7757;52.626;4.746;2022-09-12T10:45:59;101279.13;;;26.17;50.28
15314;BME280;7757;52.626;4.746;2022-09-12T10:48:47;101279.38;;;26.11;50.79
15314;BME280;7757;52.626;4.746;2022-09-12T10:51:25;101282.16;;;26.05;50.42
15314;BME280;7757;52.626;4.746;2022-09-12T10:53:54;101280.75;;;26.28;50.20
15314;BME280;7757;52.626;4.746;2022-09-12T10:56:23;101279.44;;;26.16;50.42
15314;BME280;7757;52.626;4.746;2022-09-12T10:59:01;101289.44;;;26.50;49.73
15314;BME280;7757;52.626;4.746;2022-09-12T11:01:37;101282.19;;;25.85;51.44
15314;BME280;7757;52.626;4.746;2022-09-12T11:04:21;101278.59;;;26.00;50.95
15314;BME280;7757;52.626;4.746;2022-09-12T11:06:57;101275.88;;;26.00;50.86
15314;BME280;7757;52.626;4.746;2022-09-12T11:09:33;101274.97;;;26.25;50.52
15314;BME280;7757;52.626;4.746;2022-09-12T11:12:09;101276.31;;;26.42;49.91
15314;BME280;7757;52.626;4.746;2022-09-12T11:14:47;101276.31;;;26.37;49.98
15314;BME280;7757;52.626;4.746;2022-09-12T11:17:24;101280.25;;;25.81;51.06
15314;BME280;7757;52.626;4.746;2022-09-12T11:20:03;101275.88;;;25.95;50.85
15314;BME280;7757;52.626;4.746;2022-09-12T11:22:42;101260.00;;;25.31;52.46
15314;BME280;7757;52.626;4.746;2022-09-12T11:25:27;101259.25;;;26.55;49.73
15314;BME280;7757;52.626;4.746;2022-09-12T11:28:11;101254.50;;;25.82;51.52
15314;BME280;7757;52.626;4.746;2022-09-12T11:30:49;101247.06;;;26.18;50.71
15314;BME280;7757;52.626;4.746;2022-09-12T11:33:29;101257.81;;;25.43;52.31
15314;BME280;7757;52.626;4.746;2022-09-12T11:36:05;101249.88;;;25.32;53.29
15314;BME280;7757;52.626;4.746;2022-09-12T11:38:56;101254.00;;;25.49;52.47
15314;BME280;7757;52.626;4.746;2022-09-12T11:41:30;101265.59;;;24.74;53.90
15314;BME280;7757;52.626;4.746;2022-09-12T11:44:02;101249.88;;;25.27;53.12
15314;BME280;7757;52.626;4.746;2022-09-12T11:46:35;101256.72;;;25.65;51.85
15314;BME280;7757;52.626;4.746;2022-09-12T11:49:10;101258.63;;;25.34;52.38
15314;BME280;7757;52.626;4.746;2022-09-12T11:51:44;101259.69;;;25.13;53.57
15314;BME280;7757;52.626;4.746;2022-09-12T11:54:20;101263.50;;;25.02;54.62
15314;BME280;7757;52.626;4.746;2022-09-12T11:56:52;101263.56;;;25.27;53.63
15314;BME280;7757;52.626;4.746;2022-09-12T11:59:29;101254.22;;;25.13;53.92
15314;BME280;7757;52.626;4.746;2022-09-12T12:01:58;101255.34;;;25.12;54.16
15314;BME280;7757;52.626;4.746;2022-09-12T12:04:31;101250.63;;;24.87;54.90
15314;BME280;7757;52.626;4.746;2022-09-12T12:07:04;101250.22;;;24.01;57.49
15314;BME280;7757;52.626;4.746;2022-09-12T12:09:32;101245.59;;;24.64;55.38
15314;BME280;7757;52.626;4.746;2022-09-12T12:12:00;101246.84;;;25.03;55.06
15314;BME280;7757;52.626;4.746;2022-09-12T12:14:35;101244.09;;;25.28;54.32
15314;BME280;7757;52.626;4.746;2022-09-12T12:17:03;101241.09;;;25.15;54.70
15314;BME280;7757;52.626;4.746;2022-09-12T12:19:32;101248.50;;;25.09;54.82
15314;BME280;7757;52.626;4.746;2022-09-12T12:22:07;101238.06;;;25.16;54.50
15314;BME280;7757;52.626;4.746;2022-09-12T12:24:53;101232.31;;;25.08;55.15
15314;BME280;7757;52.626;4.746;2022-09-12T12:27:44;101230.16;;;25.55;53.94
15314;BME280;7757;52.626;4.746;2022-09-12T12:36:41;101217.53;;;25.74;52.59
15314;BME280;7757;52.626;4.746;2022-09-12T12:46:03;101206.59;;;25.64;52.58
15314;BME280;7757;52.626;4.746;2022-09-12T12:48:43;101204.41;;;25.21;53.59
15314;BME280;7757;52.626;4.746;2022-09-12T12:51:22;101207.66;;;25.73;52.07
15314;BME280;7757;52.626;4.746;2022-09-12T12:53:52;101204.41;;;25.71;52.15
15314;BME280;7757;52.626;4.746;2022-09-12T12:56:27;101197.25;;;25.70;52.51
15314;BME280;7757;52.626;4.746;2022-09-12T12:58:58;101201.84;;;26.00;51.11
15314;BME280;7757;52.626;4.746;2022-09-12T13:01:27;101201.66;;;25.41;52.54
15314;BME280;7757;52.626;4.746;2022-09-12T13:03:55;101196.72;;;24.82;54.21
15314;BME280;7757;52.626;4.746;2022-09-12T13:06:30;101208.78;;;24.96;54.03
15314;BME280;7757;52.626;4.746;2022-09-12T13:09:00;101197.69;;;24.41;54.88
15314;BME280;7757;52.626;4.746;2022-09-12T13:11:31;101191.81;;;25.15;53.61
15314;BME280;7757;52.626;4.746;2022-09-12T13:14:00;101201.38;;;25.07;53.30
15314;BME280;7757;52.626;4.746;2022-09-12T13:16:34;101197.00;;;25.01;53.24
15314;BME280;7757;52.626;4.746;2022-09-12T13:19:04;101198.91;;;25.16;53.20
15314;BME280;7757;52.626;4.746;2022-09-12T13:21:33;101189.84;;;25.66;51.82
15314;BME280;7757;52.626;4.746;2022-09-12T13:24:02;101193.72;;;25.65;51.95
15314;BME280;7757;52.626;4.746;2022-09-12T13:26:33;101187.44;;;25.04;53.26
15314;BME280;7757;52.626;4.746;2022-09-12T13:29:10;101188.78;;;25.46;52.05
15314;BME280;7757;52.626;4.746;2022-09-12T13:31:39;101184.13;;;25.47;52.03
15314;BME280;7757;52.626;4.746;2022-09-12T13:34:08;101192.06;;;25.28;52.35
15314;BME280;7757;52.626;4.746;2022-09-12T13:36:53;101183.06;;;25.03;52.92
15314;BME280;7757;52.626;4.746;2022-09-12T13:39:25;101178.13;;;25.00;52.54
15314;BME280;7757;52.626;4.746;2022-09-12T13:42:19;101175.91;;;25.37;51.81